Time;durP1;ratioP1;P1;durP2;ratioP2;P2;SDS_P1;SDS_P2;PMS_P1;PMS_P2;Temp;Humidity;BMP_temperature;BMP_pressure;BME280_temperature;BME280_humidity;BME280_pressure;Samples;Min_cycle;Max_cycle;Signal;HPM_P1;HPM_P2
2022/08/19 00:01:49;;;;;;;3.50;1.90;;;14.70;99.90;;;;;;5012031;28;20045;-81
2022/08/19 00:04:17;;;;;;;3.10;1.90;;;14.70;99.90;;;;;;5013389;28;20081;-81
2022/08/19 00:06:45;;;;;;;4.25;2.53;;;14.60;99.90;;;;;;5013403;28;20100;-81
2022/08/19 00:09:12;;;;;;;4.68;2.55;;;14.60;99.90;;;;;;5013646;28;20376;-81
2022/08/19 00:11:39;;;;;;;5.28;3.15;;;14.50;99.90;;;;;;5012538;28;20045;-81
2022/08/19 00:14:07;;;;;;;5.63;2.92;;;14.50;99.90;;;;;;5014039;28;20046;-81
2022/08/19 00:16:32;;;;;;;3.60;2.15;;;14.50;99.90;;;;;;4996870;28;20148;-81
2022/08/19 00:18:58;;;;;;;2.97;1.90;;;14.40;99.90;;;;;;5013342;28;20137;-81
2022/08/19 00:21:26;;;;;;;3.97;2.03;;;14.40;99.90;;;;;;4996823;28;20038;-81
2022/08/19 00:23:53;;;;;;;6.05;2.25;;;14.40;99.90;;;;;;5013676;28;20531;-81
2022/08/19 00:26:18;;;;;;;3.78;2.25;;;14.30;99.90;;;;;;4980987;28;20381;-81
2022/08/19 00:28:44;;;;;;;3.88;2.25;;;14.30;99.90;;;;;;5026325;28;20041;-82
2022/08/19 00:31:10;;;;;;;3.42;1.92;;;14.30;99.90;;;;;;5016750;28;20052;-82
2022/08/19 00:33:36;;;;;;;3.92;2.17;;;14.20;99.90;;;;;;5008913;28;20405;-81
2022/08/19 00:36:05;;;;;;;3.20;1.70;;;14.20;99.90;;;;;;5012504;28;20411;-81
2022/08/19 00:38:31;;;;;;;7.07;2.35;;;14.10;99.90;;;;;;5012971;28;20034;-80
2022/08/19 00:40:57;;;;;;;8.85;3.17;;;14.10;99.90;;;;;;4996765;28;20042;-80
2022/08/19 00:43:25;;;;;;;5.65;2.40;;;14.10;99.90;;;;;;4995247;28;20057;-80
2022/08/19 00:45:51;;;;;;;4.53;2.10;;;14.10;99.90;;;;;;4996058;28;20041;-81
2022/08/19 00:48:18;;;;;;;3.75;2.38;;;14.10;99.90;;;;;;5013043;28;20034;-80
2022/08/19 00:50:45;;;;;;;3.22;1.95;;;14.10;99.90;;;;;;5013369;28;20042;-81
2022/08/19 00:53:14;;;;;;;4.82;2.22;;;14.00;99.90;;;;;;4999046;28;20096;-81
2022/08/19 00:55:44;;;;;;;3.88;2.20;;;14.00;99.90;;;;;;5012638;28;20049;-82
2022/08/19 00:58:13;;;;;;;6.30;3.53;;;14.00;99.90;;;;;;5012856;28;20088;-82
2022/08/19 01:00:39;;;;;;;5.35;3.22;;;14.00;99.90;;;;;;5012617;28;20468;-82
2022/08/19 01:03:08;;;;;;;5.97;3.25;;;14.00;99.90;;;;;;5010929;28;20048;-81
2022/08/19 01:05:35;;;;;;;4.85;2.80;;;14.00;99.90;;;;;;4996045;28;20052;-82
2022/08/19 01:08:03;;;;;;;4.68;2.70;;;14.00;99.90;;;;;;4993789;28;20121;-80
2022/08/19 01:10:33;;;;;;;3.78;2.10;;;14.00;99.90;;;;;;4993084;28;20034;-81
2022/08/19 01:13:00;;;;;;;4.22;2.53;;;14.00;99.90;;;;;;5002254;28;20038;-81
2022/08/19 01:15:38;;;;;;;4.30;2.33;;;13.90;99.90;;;;;;4993048;28;20050;-80
2022/08/19 01:18:10;;;;;;;3.75;2.25;;;13.90;99.90;;;;;;4993016;28;20420;-81
2022/08/19 01:20:36;;;;;;;4.35;2.20;;;13.90;99.90;;;;;;4992942;28;20081;-80
2022/08/19 01:23:03;;;;;;;4.35;1.80;;;13.80;99.90;;;;;;5004769;28;20041;-80
2022/08/19 01:25:39;;;;;;;2.42;1.60;;;13.80;99.90;;;;;;5012650;28;20042;-81
2022/08/19 01:28:05;;;;;;;2.80;1.77;;;13.80;99.90;;;;;;5019728;28;20048;-81
2022/08/19 01:30:34;;;;;;;3.78;1.88;;;13.70;99.90;;;;;;5012276;28;20038;-81
2022/08/19 01:33:00;;;;;;;4.07;2.08;;;13.70;99.90;;;;;;4996970;28;20046;-81
2022/08/19 01:35:29;;;;;;;2.95;1.90;;;13.70;99.90;;;;;;5015136;28;20053;-81
2022/08/19 01:38:07;;;;;;;3.40;2.25;;;13.60;99.90;;;;;;5015515;28;20487;-81
2022/08/19 01:40:35;;;;;;;3.15;1.80;;;13.60;99.90;;;;;;5015725;28;20045;-81
2022/08/19 01:43:02;;;;;;;4.65;2.67;;;13.60;99.90;;;;;;5015843;28;20080;-80
2022/08/19 01:45:30;;;;;;;3.72;2.15;;;13.60;99.90;;;;;;5013272;28;20041;-80
2022/08/19 01:47:57;;;;;;;2.58;1.70;;;13.60;99.90;;;;;;4999448;28;20041;-80
2022/08/19 01:50:23;;;;;;;3.90;2.08;;;13.60;99.90;;;;;;4999984;28;20045;-80
2022/08/19 01:52:48;;;;;;;3.65;1.90;;;13.70;99.90;;;;;;4999599;28;20033;-80
2022/08/19 01:55:19;;;;;;;4.43;2.20;;;13.60;99.90;;;;;;4997429;28;20567;-80
2022/08/19 01:57:49;;;;;;;4.18;2.58;;;13.60;99.90;;;;;;5002793;28;20072;-81
2022/08/19 02:00:17;;;;;;;2.95;1.90;;;13.70;99.90;;;;;;5002718;28;20048;-80
2022/08/19 02:02:43;;;;;;;3.13;1.90;;;13.60;99.90;;;;;;5001824;28;20381;-81
2022/08/19 02:05:09;;;;;;;5.13;2.13;;;13.60;99.90;;;;;;5018731;28;20041;-81
2022/08/19 02:07:36;;;;;;;3.38;2.03;;;13.60;99.90;;;;;;5002204;28;20042;-81
2022/08/19 02:10:08;;;;;;;4.35;2.20;;;13.60;99.90;;;;;;5018694;28;20528;-81
2022/08/19 02:12:35;;;;;;;4.30;2.08;;;13.60;99.90;;;;;;5018296;28;20443;-80
2022/08/19 02:15:01;;;;;;;3.78;2.53;;;13.60;99.90;;;;;;5000932;28;20099;-82
2022/08/19 02:17:28;;;;;;;5.57;2.65;;;13.70;99.90;;;;;;5017281;28;20045;-83
2022/08/19 02:19:57;;;;;;;3.60;2.10;;;13.70;99.90;;;;;;5018491;28;20045;-82
2022/08/19 02:22:25;;;;;;;5.18;2.28;;;13.60;99.90;;;;;;5006849;28;20175;-83
2022/08/19 02:24:54;;;;;;;4.05;2.50;;;13.70;99.90;;;;;;5017956;28;20050;-83
2022/08/19 02:27:23;;;;;;;5.13;2.90;;;13.70;99.90;;;;;;5003499;28;20171;-83
2022/08/19 02:29:51;;;;;;;4.35;2.72;;;13.70;99.90;;;;;;5038157;28;20052;-83
2022/08/19 02:32:19;;;;;;;6.82;3.88;;;13.70;99.90;;;;;;5035995;28;20387;-81
2022/08/19 02:34:46;;;;;;;5.85;3.40;;;13.80;99.90;;;;;;5001780;28;20045;-80
2022/08/19 02:38:25;;;;;;;5.07;2.70;;;13.80;99.90;;;;;;5018112;28;20472;-80
2022/08/19 02:39:57;;;;;;;4.35;2.53;;;13.90;99.90;;;;;;5018161;28;20053;-81
2022/08/19 02:42:23;;;;;;;5.38;2.80;;;13.80;99.90;;;;;;5017785;28;20038;-81
2022/08/19 02:44:49;;;;;;;7.20;3.65;;;13.90;99.90;;;;;;5019044;28;20046;-81
2022/08/19 02:47:15;;;;;;;9.05;4.30;;;13.90;99.90;;;;;;5018173;28;20048;-81
2022/08/19 02:49:41;;;;;;;6.65;3.47;;;14.00;99.90;;;;;;5018132;28;20072;-81
2022/08/19 02:52:07;;;;;;;7.47;3.60;;;14.00;99.90;;;;;;5017719;28;20073;-82
2022/08/19 02:54:33;;;;;;;6.68;3.90;;;14.00;99.90;;;;;;5013787;28;20097;-82
2022/08/19 02:56:58;;;;;;;5.53;2.95;;;14.10;99.90;;;;;;5029931;28;20487;-82
2022/08/19 02:59:26;;;;;;;4.75;2.83;;;14.10;99.90;;;;;;5032077;28;20124;-82
2022/08/19 03:01:52;;;;;;;3.83;2.20;;;14.00;99.90;;;;;;5034321;28;20412;-82
2022/08/19 03:04:19;;;;;;;4.22;2.45;;;14.00;99.90;;;;;;5000499;28;20133;-82
2022/08/19 03:06:46;;;;;;;4.68;2.50;;;14.00;99.90;;;;;;5017553;28;20041;-82
2022/08/19 03:09:13;;;;;;;4.65;2.72;;;14.00;99.90;;;;;;5017695;28;20302;-82
2022/08/19 03:11:39;;;;;;;5.25;2.97;;;13.90;99.90;;;;;;5001064;28;20049;-82
2022/08/19 03:14:07;;;;;;;5.68;2.50;;;13.90;99.90;;;;;;5017072;28;20041;-82
2022/08/19 03:16:39;;;;;;;3.85;2.30;;;13.90;99.90;;;;;;5016580;28;20041;-82
2022/08/19 03:19:05;;;;;;;6.22;2.85;;;13.90;99.90;;;;;;5000781;28;20136;-82
2022/08/19 03:21:33;;;;;;;5.38;3.38;;;13.90;99.90;;;;;;5017787;28;20530;-82
2022/08/19 03:24:02;;;;;;;7.82;3.60;;;14.00;99.90;;;;;;5001629;28;20124;-82
2022/08/19 03:26:29;;;;;;;5.75;3.10;;;14.00;99.90;;;;;;5016953;28;20038;-82
2022/08/19 03:28:55;;;;;;;5.72;2.60;;;14.00;99.90;;;;;;5032508;28;20033;-82
2022/08/19 03:31:22;;;;;;;5.43;2.45;;;14.00;99.90;;;;;;5037125;28;20395;-82
2022/08/19 03:33:50;;;;;;;4.18;2.22;;;14.00;99.90;;;;;;5020635;28;20455;-82
2022/08/19 03:36:22;;;;;;;5.93;2.45;;;13.90;99.90;;;;;;5029042;28;20061;-82
2022/08/19 03:38:51;;;;;;;5.28;2.97;;;14.00;99.90;;;;;;5017076;28;20138;-83
2022/08/19 03:41:22;;;;;;;4.07;2.60;;;13.90;99.90;;;;;;5016907;28;20427;-83
2022/08/19 03:43:48;;;;;;;4.78;2.60;;;13.90;99.90;;;;;;5017277;28;20353;-83
2022/08/19 03:46:16;;;;;;;5.60;2.97;;;13.90;99.90;;;;;;5000297;28;20077;-83
2022/08/19 03:48:43;;;;;;;4.28;2.55;;;13.90;99.90;;;;;;5021143;22;20062;-81
2022/08/19 03:51:24;;;;;;;5.85;2.47;;;13.90;99.90;;;;;;5029945;28;20436;-81
2022/08/19 03:53:51;;;;;;;5.03;3.00;;;13.90;99.90;;;;;;4997243;28;20100;-82
2022/08/19 03:56:17;;;;;;;4.80;2.83;;;13.90;99.90;;;;;;4997398;28;20041;-82
2022/08/19 03:58:44;;;;;;;5.68;3.47;;;13.90;99.90;;;;;;4997777;28;20045;-82
2022/08/19 04:01:14;;;;;;;5.90;3.03;;;13.90;99.90;;;;;;5029649;28;20053;-82
2022/08/19 04:03:40;;;;;;;5.00;3.00;;;14.00;99.90;;;;;;5029522;28;20045;-82
2022/08/19 04:06:12;;;;;;;5.95;3.35;;;14.00;99.90;;;;;;4980499;28;20033;-82
2022/08/19 04:08:43;;;;;;;6.28;3.72;;;14.00;99.90;;;;;;5029536;28;20042;-82
2022/08/19 04:11:11;;;;;;;4.68;2.55;;;14.00;99.90;;;;;;4994575;28;20042;-82
2022/08/19 04:13:38;;;;;;;4.10;2.42;;;14.00;99.90;;;;;;4993791;28;20050;-82
2022/08/19 04:16:05;;;;;;;6.20;3.40;;;14.00;99.90;;;;;;5007385;28;20707;-82
2022/08/19 04:18:32;;;;;;;5.85;3.03;;;14.00;99.90;;;;;;5029789;28;20084;-82
2022/08/19 04:20:58;;;;;;;3.95;2.47;;;14.00;99.90;;;;;;5029442;28;20078;-82
2022/08/19 04:23:23;;;;;;;6.60;3.60;;;14.00;99.90;;;;;;5013070;28;20042;-82
2022/08/19 04:25:49;;;;;;;4.43;2.42;;;14.00;99.90;;;;;;5013353;28;20044;-82
2022/08/19 04:28:15;;;;;;;5.07;2.92;;;14.00;99.90;;;;;;4996933;28;20113;-82
2022/08/19 04:30:47;;;;;;;6.85;3.60;;;14.00;99.90;;;;;;4996831;28;20038;-82
2022/08/19 04:33:16;;;;;;;3.97;2.47;;;14.10;99.90;;;;;;5013223;28;20042;-82
2022/08/19 04:35:44;;;;;;;4.55;2.38;;;14.00;99.90;;;;;;5013301;28;20159;-82
2022/08/19 04:38:10;;;;;;;4.45;2.40;;;14.00;99.90;;;;;;5029312;28;20065;-82
2022/08/19 04:43:31;;;;;;;3.53;2.20;;;14.00;99.90;;;;;;5029528;28;20046;-82
2022/08/19 04:45:57;;;;;;;4.95;2.72;;;14.00;99.90;;;;;;4996737;28;20092;-82
2022/08/19 04:48:26;;;;;;;8.10;4.18;;;14.00;99.90;;;;;;5031393;28;20055;-82
2022/08/19 04:50:57;;;;;;;4.70;2.88;;;14.10;99.90;;;;;;4999942;28;20042;-82
2022/08/19 04:53:33;;;;;;;7.28;3.28;;;14.10;99.90;;;;;;5018023;28;20045;-82
2022/08/19 04:56:03;;;;;;;5.90;3.38;;;14.10;99.90;;;;;;5036083;28;20049;-82
2022/08/19 04:58:29;;;;;;;5.22;2.83;;;14.20;99.90;;;;;;4999688;28;20046;-82
2022/08/19 05:00:55;;;;;;;5.38;2.67;;;14.20;99.90;;;;;;4999812;28;20045;-82
2022/08/19 05:03:21;;;;;;;6.78;3.65;;;14.30;99.90;;;;;;5016292;28;20037;-82
2022/08/19 05:05:48;;;;;;;12.75;4.40;;;14.40;99.90;;;;;;5032272;28;20077;-82
2022/08/19 05:08:20;;;;;;;8.82;4.30;;;14.40;99.90;;;;;;5031944;28;20045;-82
2022/08/19 05:10:48;;;;;;;7.03;4.30;;;14.50;99.90;;;;;;5032416;28;20041;-82
2022/08/19 05:13:14;;;;;;;6.57;3.63;;;14.60;99.90;;;;;;5017257;28;20076;-82
2022/08/19 05:15:40;;;;;;;5.65;3.55;;;14.70;99.90;;;;;;5009496;28;20047;-82
2022/08/19 05:23:34;;;;;;;6.72;3.58;;;15.10;99.90;;;;;;5020420;28;20048;-82
2022/08/19 05:26:00;;;;;;;7.25;3.65;;;15.20;99.90;;;;;;5036410;28;20364;-82
2022/08/19 05:28:25;;;;;;;6.22;3.22;;;15.30;99.90;;;;;;5037091;28;20411;-82
2022/08/19 05:30:51;;;;;;;6.60;3.60;;;15.30;99.90;;;;;;5003169;28;20037;-82
2022/08/19 05:33:18;;;;;;;8.30;4.03;;;15.40;99.90;;;;;;5002376;28;20050;-82
2022/08/19 05:35:44;;;;;;;8.35;3.92;;;15.50;99.90;;;;;;5028374;28;20044;-82
2022/08/19 05:38:10;;;;;;;8.38;4.18;;;15.50;99.90;;;;;;5011824;28;20041;-82
2022/08/19 05:40:38;;;;;;;6.05;3.45;;;15.60;99.90;;;;;;5003122;28;20476;-82
2022/08/19 05:43:05;;;;;;;9.27;4.25;;;15.70;99.90;;;;;;5035634;28;20053;-82
2022/08/19 05:45:31;;;;;;;9.15;4.78;;;15.70;99.90;;;;;;5016913;28;20073;-82
2022/08/19 05:47:58;;;;;;;8.15;4.65;;;15.90;99.90;;;;;;5027636;28;20080;-82
2022/08/19 05:50:26;;;;;;;6.80;3.28;;;16.00;99.90;;;;;;5047776;28;20054;-82
2022/08/19 05:52:52;;;;;;;7.60;4.10;;;16.00;99.90;;;;;;5015793;28;20042;-82
2022/08/19 05:55:19;;;;;;;9.52;3.92;;;16.10;99.90;;;;;;5032766;28;20037;-82
2022/08/19 05:57:46;;;;;;;7.32;3.90;;;16.20;99.90;;;;;;5035140;28;20041;-82
2022/08/19 06:00:13;;;;;;;7.47;3.90;;;16.30;99.90;;;;;;4986421;28;20128;-82
2022/08/19 06:02:39;;;;;;;7.03;3.70;;;16.30;99.90;;;;;;5004276;28;20496;-82
2022/08/19 06:05:08;;;;;;;6.82;3.40;;;16.40;99.90;;;;;;5033667;28;20052;-82
2022/08/19 06:07:39;;;;;;;6.63;3.88;;;16.60;99.90;;;;;;5048057;28;20111;-82
2022/08/19 06:10:07;;;;;;;9.35;4.90;;;16.70;99.90;;;;;;5004478;28;20540;-83
2022/08/19 06:12:34;;;;;;;6.95;4.35;;;16.80;99.90;;;;;;5018582;28;20052;-82
2022/08/19 06:15:11;;;;;;;8.75;4.95;;;17.30;99.90;;;;;;5019143;28;20045;-83
2022/08/19 06:17:37;;;;;;;7.28;4.32;;;17.90;99.90;;;;;;5018465;28;20053;-83
2022/08/19 06:20:05;;;;;;;5.90;3.70;;;18.10;99.90;;;;;;5018437;28;20051;-83
2022/08/19 06:22:31;;;;;;;8.13;4.45;;;18.30;99.90;;;;;;5018546;28;20348;-83
2022/08/19 06:24:57;;;;;;;10.40;4.53;;;18.90;99.90;;;;;;5021964;28;20048;-83
2022/08/19 06:27:23;;;;;;;7.95;4.25;;;19.60;99.90;;;;;;5006737;28;20034;-84
2022/08/19 06:29:49;;;;;;;11.55;4.10;;;19.90;99.90;;;;;;5034474;28;20060;-83
2022/08/19 06:32:16;;;;;;;7.97;4.40;;;20.80;99.90;;;;;;5016161;28;20487;-83
2022/08/19 06:34:42;;;;;;;11.05;4.55;;;22.30;99.90;;;;;;5001120;28;20041;-84
2022/08/19 06:37:08;;;;;;;5.85;3.53;;;23.50;99.90;;;;;;5034404;28;20044;-84
2022/08/19 06:39:39;;;;;;;8.18;4.00;;;24.70;99.90;;;;;;5017472;28;20041;-83
2022/08/19 06:42:08;;;;;;;7.55;3.65;;;25.70;99.90;;;;;;5001838;28;20081;-83
2022/08/19 06:44:36;;;;;;;5.65;3.20;;;26.50;99.90;;;;;;4984869;28;20033;-84
2022/08/19 06:47:07;;;;;;;6.95;3.65;;;27.30;99.90;;;;;;5017384;28;20496;-84
2022/08/19 06:49:33;;;;;;;5.38;3.20;;;28.00;99.90;;;;;;5017746;28;20446;-84
2022/08/19 06:52:00;;;;;;;5.75;3.60;;;28.50;99.90;;;;;;5034553;28;20095;-84
2022/08/19 06:54:28;;;;;;;6.00;2.85;;;28.80;97.10;;;;;;5001513;28;20045;-84
2022/08/19 06:56:54;;;;;;;8.23;3.03;;;29.40;98.60;;;;;;5051738;28;20045;-84
2022/08/19 06:59:22;;;;;;;5.50;2.63;;;29.90;96.50;;;;;;5001847;28;20122;-84
2022/08/19 07:01:52;;;;;;;4.72;2.63;;;30.20;95.80;;;;;;5050875;28;20553;-83
2022/08/19 07:04:28;;;;;;;5.60;3.13;;;30.50;94.60;;;;;;5001261;28;20037;-83
2022/08/19 07:07:03;;;;;;;6.85;3.30;;;30.80;95.40;;;;;;5010220;28;20037;-84
2022/08/19 07:09:29;;;;;;;4.65;2.78;;;30.90;93.70;;;;;;5037545;28;20037;-83
2022/08/19 07:11:55;;;;;;;6.32;3.10;;;31.30;94.00;;;;;;5022226;28;20037;-84
2022/08/19 07:14:25;;;;;;;4.57;2.53;;;31.30;93.40;;;;;;5001468;28;20045;-84
2022/08/19 07:16:54;;;;;;;4.13;2.60;;;31.40;92.90;;;;;;5023403;28;20073;-83
2022/08/19 07:19:21;;;;;;;4.32;2.65;;;31.90;91.80;;;;;;4993121;28;20127;-84
2022/08/19 07:21:52;;;;;;;5.22;2.50;;;32.10;92.20;;;;;;5033823;28;20525;-83
2022/08/19 07:24:19;;;;;;;4.53;2.50;;;32.40;91.40;;;;;;5001338;28;20376;-83
2022/08/19 07:26:46;;;;;;;5.32;2.92;;;32.50;91.60;;;;;;5032756;28;20041;-83
2022/08/19 07:29:12;;;;;;;6.25;2.50;;;32.40;91.10;;;;;;5000967;28;20041;-84
2022/08/19 07:31:38;;;;;;;5.80;2.78;;;32.40;91.70;;;;;;5033636;28;20499;-81
2022/08/19 07:34:10;;;;;;;4.00;2.45;;;32.60;91.00;;;;;;5000975;28;20045;-81
2022/08/19 07:36:38;;;;;;;5.55;2.80;;;32.90;90.90;;;;;;5032488;28;20033;-81
2022/08/19 07:39:12;;;;;;;4.93;3.08;;;32.80;90.10;;;;;;5000911;28;20041;-82
2022/08/19 07:41:39;;;;;;;5.32;3.00;;;32.80;90.50;;;;;;5013772;28;20132;-81
2022/08/19 07:44:07;;;;;;;4.45;2.85;;;33.20;89.70;;;;;;4997192;28;20546;-81
2022/08/19 07:46:39;;;;;;;4.68;2.53;;;33.50;87.80;;;;;;5013555;28;20504;-81
2022/08/19 07:49:06;;;;;;;4.00;2.35;;;33.60;89.40;;;;;;5045698;28;20045;-84
2022/08/19 07:51:32;;;;;;;5.47;2.88;;;34.00;89.50;;;;;;5017419;28;20076;-84
2022/08/19 07:53:58;;;;;;;5.22;2.83;;;33.90;90.10;;;;;;5016260;28;20053;-84
2022/08/19 07:56:24;;;;;;;3.85;2.42;;;34.20;87.80;;;;;;5017109;28;20045;-84
2022/08/19 07:58:51;;;;;;;3.75;2.38;;;34.20;88.70;;;;;;4983567;28;20041;-84
2022/08/19 08:01:21;;;;;;;4.68;2.60;;;34.50;87.20;;;;;;4999490;28;20049;-84
2022/08/19 08:09:22;;;;;;;5.32;3.58;;;34.90;86.50;;;;;;5015234;28;20037;-81
2022/08/19 08:11:50;;;;;;;7.40;3.45;;;34.10;85.60;;;;;;5016339;28;20038;-81
2022/08/19 08:14:19;;;;;;;4.97;3.03;;;34.40;86.10;;;;;;5016664;28;20042;-81
2022/08/19 08:16:45;;;;;;;6.35;4.07;;;34.80;85.90;;;;;;4999992;28;20503;-81
2022/08/19 08:19:14;;;;;;;5.28;2.85;;;35.00;85.30;;;;;;5017690;28;20072;-81
2022/08/19 08:21:41;;;;;;;7.03;3.80;;;35.10;84.10;;;;;;5000036;28;20038;-81
2022/08/19 08:24:06;;;;;;;5.50;2.97;;;35.20;85.50;;;;;;5016462;28;20033;-82
2022/08/19 08:26:32;;;;;;;5.68;3.08;;;35.20;85.20;;;;;;5049564;28;20037;-82
2022/08/19 08:28:58;;;;;;;7.75;4.57;;;34.90;83.20;;;;;;4983033;28;20522;-82
2022/08/19 08:31:24;;;;;;;5.13;3.20;;;34.50;83.80;;;;;;5000628;28;20060;-82
2022/08/19 08:33:50;;;;;;;4.82;3.00;;;34.50;83.20;;;;;;4999330;28;20381;-82
2022/08/19 08:36:16;;;;;;;6.30;3.63;;;34.80;85.00;;;;;;5034301;28;20080;-81
2022/08/19 08:38:47;;;;;;;5.72;3.40;;;35.10;82.70;;;;;;5049153;28;20051;-81
2022/08/19 08:41:45;;;;;;;6.82;3.80;;;35.50;83.50;;;;;;5047638;28;20077;-81
2022/08/19 08:44:35;;;;;;;6.22;3.50;;;35.20;83.50;;;;;;5015497;28;20045;-81
2022/08/19 08:47:06;;;;;;;8.20;4.78;;;35.20;83.80;;;;;;4991680;28;20070;-81
2022/08/19 08:49:43;;;;;;;6.95;4.50;;;35.20;83.80;;;;;;5031484;28;20100;-82
2022/08/19 08:52:36;;;;;;;6.78;4.25;;;34.80;84.30;;;;;;5029687;28;20055;-81
2022/08/19 08:55:11;;;;;;;7.57;3.85;;;34.70;83.60;;;;;;5024261;28;20053;-82
2022/08/19 08:57:50;;;;;;;6.47;4.20;;;34.90;83.20;;;;;;5003698;28;20046;-82
2022/08/19 09:00:47;;;;;;;6.30;3.75;;;35.40;83.60;;;;;;5052916;28;20488;-82
2022/08/19 09:03:23;;;;;;;5.65;4.00;;;35.40;82.90;;;;;;5020949;28;20092;-82
2022/08/19 09:06:06;;;;;;;6.90;4.68;;;36.00;81.60;;;;;;5051821;28;20041;-82
2022/08/19 09:08:47;;;;;;;7.97;3.78;;;36.00;82.10;;;;;;5019998;28;20049;-82
2022/08/19 09:11:36;;;;;;;8.55;5.68;;;36.00;81.80;;;;;;5030659;28;20034;-83
2022/08/19 09:14:23;;;;;;;7.93;4.70;;;35.60;80.50;;;;;;5019613;28;20099;-83
2022/08/19 09:16:50;;;;;;;6.63;4.30;;;35.60;82.40;;;;;;5039002;28;20116;-83
2022/08/19 09:19:17;;;;;;;7.13;4.22;;;35.60;80.50;;;;;;4991013;28;20112;-83
2022/08/19 09:21:43;;;;;;;5.63;3.55;;;35.00;82.10;;;;;;5035133;28;20049;-83
2022/08/19 09:24:09;;;;;;;7.18;3.97;;;34.70;82.30;;;;;;5002860;28;20040;-83
2022/08/19 09:26:34;;;;;;;6.50;4.22;;;35.20;85.20;;;;;;4987203;28;20040;-83
2022/08/19 09:29:01;;;;;;;8.55;4.32;;;36.20;80.70;;;;;;4983789;28;20044;-82
2022/08/19 09:31:29;;;;;;;9.13;4.93;;;35.80;81.00;;;;;;5000732;28;21777;-82
2022/08/19 09:33:58;;;;;;;5.55;3.25;;;35.70;81.40;;;;;;5019368;28;20496;-82
2022/08/19 09:36:26;;;;;;;6.75;4.40;;;36.10;81.10;;;;;;5019521;28;20037;-82
2022/08/19 09:38:53;;;;;;;10.07;5.82;;;36.00;81.20;;;;;;5003276;28;20049;-82
2022/08/19 09:41:22;;;;;;;6.90;4.32;;;36.00;80.50;;;;;;5002750;28;20077;-81
2022/08/19 09:43:52;;;;;;;5.90;3.70;;;36.00;82.60;;;;;;5051311;28;20038;-81
2022/08/19 09:46:20;;;;;;;6.40;3.40;;;36.40;80.20;;;;;;5003303;28;20063;-81
2022/08/19 09:48:48;;;;;;;7.50;4.03;;;36.90;78.50;;;;;;5052321;28;20045;-81
2022/08/19 09:51:16;;;;;;;6.40;3.55;;;36.40;76.20;;;;;;5052605;28;20480;-81
2022/08/19 09:53:47;;;;;;;4.97;3.15;;;35.20;77.60;;;;;;5051160;28;20491;-81
2022/08/19 09:56:13;;;;;;;6.70;3.25;;;33.70;79.90;;;;;;5047410;28;20041;-81
2022/08/19 09:58:39;;;;;;;5.10;3.50;;;33.10;83.00;;;;;;5031390;28;20518;-81
2022/08/19 10:01:06;;;;;;;6.75;3.55;;;33.40;81.80;;;;;;5042916;28;20047;-81
2022/08/19 10:03:34;;;;;;;6.93;3.72;;;33.80;81.00;;;;;;5007611;28;20042;-82
2022/08/19 10:06:02;;;;;;;5.10;3.55;;;34.60;82.40;;;;;;5040430;28;20066;-81
2022/08/19 10:08:32;;;;;;;4.80;2.92;;;35.40;79.90;;;;;;5024134;28;20037;-82
2022/08/19 10:10:59;;;;;;;5.78;3.38;;;35.50;77.60;;;;;;5041849;28;20037;-82
2022/08/19 10:13:27;;;;;;;4.78;3.30;;;35.90;80.00;;;;;;5002496;28;20044;-82
2022/08/19 10:15:56;;;;;;;5.32;3.30;;;36.20;78.90;;;;;;5029649;28;20058;-82
2022/08/19 10:18:24;;;;;;;4.05;2.72;;;36.60;77.40;;;;;;5007876;28;20081;-81
2022/08/19 10:20:52;;;;;;;5.60;3.15;;;37.00;78.90;;;;;;5024029;28;20047;-81
2022/08/19 10:23:19;;;;;;;4.85;3.08;;;37.20;79.30;;;;;;5023398;28;20443;-81
2022/08/19 10:25:45;;;;;;;5.75;3.30;;;37.30;76.60;;;;;;5013834;28;20140;-81
2022/08/19 10:28:14;;;;;;;4.53;3.13;;;37.40;77.40;;;;;;5027695;28;20508;-81
2022/08/19 10:30:41;;;;;;;6.40;3.30;;;37.10;78.00;;;;;;5023705;28;20044;-81
2022/08/19 10:33:06;;;;;;;5.47;3.78;;;36.80;77.60;;;;;;5027921;28;20045;-81
2022/08/19 10:35:32;;;;;;;7.85;4.53;;;35.70;77.60;;;;;;5008206;28;20463;-81
2022/08/19 10:37:58;;;;;;;7.65;3.72;;;35.30;79.30;;;;;;4994930;28;20049;-81
2022/08/19 10:40:26;;;;;;;6.07;3.25;;;34.90;79.50;;;;;;4997441;28;20510;-81
2022/08/19 10:42:54;;;;;;;5.43;3.30;;;35.00;80.10;;;;;;5011610;28;20100;-81
2022/08/19 10:45:23;;;;;;;5.05;3.20;;;35.80;78.70;;;;;;5020845;28;20047;-81
2022/08/19 10:47:48;;;;;;;6.05;3.00;;;36.30;78.80;;;;;;4990897;28;20125;-81
2022/08/19 10:53:05;;;;;;;8.40;3.57;;;36.70;77.40;;;;;;4985422;28;20132;-81
2022/08/19 10:58:21;;;;;;;7.13;3.08;;;37.30;76.60;;;;;;5006739;28;20041;-81
2022/08/19 11:00:58;;;;;;;6.03;3.13;;;37.10;76.50;;;;;;5004308;28;20057;-81
2022/08/19 11:03:25;;;;;;;5.10;3.20;;;37.50;75.50;;;;;;5006852;28;20114;-81
2022/08/19 11:06:01;;;;;;;6.28;2.95;;;37.80;76.50;;;;;;5016404;28;20120;-81
2022/08/19 11:08:27;;;;;;;4.60;2.92;;;37.70;75.60;;;;;;5011465;28;20095;-84
2022/08/19 11:10:57;;;;;;;5.60;3.13;;;37.30;74.80;;;;;;5022828;28;20442;-84
2022/08/19 11:13:24;;;;;;;4.47;3.30;;;36.00;76.50;;;;;;5003271;28;20524;-83
2022/08/19 11:16:01;;;;;;;5.53;3.65;;;34.50;78.80;;;;;;4998746;28;20045;-84
2022/08/19 11:18:28;;;;;;;5.55;2.63;;;33.40;80.50;;;;;;5042552;28;20302;-84
2022/08/19 11:20:53;;;;;;;5.68;3.22;;;32.40;83.00;;;;;;4990164;28;20041;-84
2022/08/19 11:23:19;;;;;;;6.53;3.40;;;31.80;83.90;;;;;;5009179;28;20044;-84
2022/08/19 11:25:45;;;;;;;8.05;4.22;;;31.30;84.60;;;;;;5025224;28;20049;-84
2022/08/19 11:28:12;;;;;;;8.40;4.10;;;30.70;85.50;;;;;;5011265;28;20035;-84
2022/08/19 11:30:39;;;;;;;7.43;3.60;;;30.30;86.20;;;;;;5030115;28;20443;-84
2022/08/19 11:33:05;;;;;;;5.57;3.33;;;29.70;87.20;;;;;;4991941;28;20069;-83
2022/08/19 11:35:32;;;;;;;6.15;3.60;;;29.30;87.80;;;;;;5021426;28;20042;-83
2022/08/19 11:38:01;;;;;;;5.78;3.13;;;29.20;89.00;;;;;;5023384;28;20045;-84
2022/08/19 11:40:27;;;;;;;7.53;3.70;;;29.00;89.00;;;;;;5004277;28;20119;-84
2022/08/19 11:42:55;;;;;;;6.55;3.90;;;28.80;89.60;;;;;;5013301;28;20045;-84
2022/08/19 11:45:26;;;;;;;7.57;3.75;;;28.60;90.20;;;;;;4988967;28;20069;-82
2022/08/19 11:47:55;;;;;;;9.07;4.75;;;28.40;90.70;;;;;;5020181;28;20092;-82
2022/08/19 11:50:23;;;;;;;8.75;4.65;;;28.10;91.80;;;;;;5023626;28;20046;-81
2022/08/19 11:52:49;;;;;;;7.30;3.65;;;27.80;92.40;;;;;;5023687;28;20041;-82
2022/08/19 11:55:15;;;;;;;9.90;4.68;;;27.90;93.20;;;;;;5021143;28;20041;-82
2022/08/19 11:57:43;;;;;;;9.90;4.65;;;28.20;93.10;;;;;;5002766;28;20495;-84
2022/08/19 12:00:11;;;;;;;10.95;4.65;;;28.80;92.90;;;;;;4986782;28;20403;-85
2022/08/19 12:02:37;;;;;;;8.43;4.45;;;29.50;92.50;;;;;;5042559;28;20124;-83
2022/08/19 12:05:03;;;;;;;12.13;5.82;;;30.30;91.40;;;;;;4999836;28;20129;-83
2022/08/19 12:07:32;;;;;;;5.78;3.60;;;30.80;90.50;;;;;;4992838;28;20042;-83
2022/08/19 12:09:59;;;;;;;7.57;3.00;;;31.50;90.80;;;;;;5031863;28;20038;-83
2022/08/19 12:12:26;;;;;;;13.65;6.53;;;31.70;90.00;;;;;;5042100;28;20033;-84
2022/08/19 12:14:56;;;;;;;6.82;4.25;;;31.40;89.10;;;;;;5011422;28;20045;-83
2022/08/19 12:17:23;;;;;;;6.65;3.53;;;31.40;90.40;;;;;;5007700;28;20135;-83
2022/08/19 12:19:49;;;;;;;5.15;3.30;;;31.60;89.50;;;;;;5011899;28;20084;-83
2022/08/19 12:22:15;;;;;;;4.68;2.90;;;30.90;86.50;;;;;;5021235;28;20073;-83
2022/08/19 12:24:40;;;;;;;5.57;3.15;;;30.10;88.50;;;;;;5026987;28;20045;-83
2022/08/19 12:27:06;;;;;;;5.53;3.35;;;29.40;90.20;;;;;;5021876;28;20041;-83
2022/08/19 12:29:33;;;;;;;5.03;2.80;;;28.50;91.70;;;;;;5021324;28;21346;-83
2022/08/19 12:32:00;;;;;;;4.15;2.45;;;28.00;92.10;;;;;;5021868;28;20049;-81
2022/08/19 12:34:29;;;;;;;7.25;3.47;;;27.70;93.10;;;;;;5025344;28;20041;-80
2022/08/19 12:36:57;;;;;;;7.93;3.55;;;27.60;93.30;;;;;;5022653;28;20109;-81
2022/08/19 12:39:23;;;;;;;5.95;3.90;;;27.60;94.00;;;;;;4989437;28;20439;-80
2022/08/19 12:41:49;;;;;;;7.50;3.65;;;27.70;94.10;;;;;;5003281;28;20084;-81
2022/08/19 12:44:16;;;;;;;6.25;4.05;;;27.80;94.10;;;;;;4992812;28;20147;-80
2022/08/19 12:46:42;;;;;;;8.63;4.38;;;28.00;93.90;;;;;;5025400;28;20042;-80
2022/08/19 12:49:07;;;;;;;12.13;4.00;;;28.00;94.30;;;;;;5038683;28;20054;-81
2022/08/19 12:51:33;;;;;;;8.50;4.50;;;28.10;93.60;;;;;;4999301;28;20052;-80
2022/08/19 12:53:59;;;;;;;9.70;4.68;;;27.90;93.70;;;;;;5019360;28;20678;-80
2022/08/19 12:56:25;;;;;;;10.85;6.20;;;27.70;94.20;;;;;;5001211;28;20037;-80
2022/08/19 12:58:51;;;;;;;9.50;4.90;;;27.40;95.20;;;;;;5028386;28;20129;-80
2022/08/19 13:01:18;;;;;;;9.05;4.30;;;27.30;95.00;;;;;;5022077;28;20045;-81
2022/08/19 13:03:47;;;;;;;7.03;3.72;;;27.20;94.30;;;;;;4991111;28;20034;-82
2022/08/19 13:06:13;;;;;;;5.63;3.20;;;26.90;94.30;;;;;;5044094;28;20553;-82
2022/08/19 13:08:39;;;;;;;6.28;3.70;;;26.80;94.10;;;;;;5019785;28;20041;-82
2022/08/19 13:11:17;;;;;;;5.53;3.53;;;26.70;94.70;;;;;;4973675;28;20041;-82